Leiter, Wyoming
Current Conditions -  °F | °C
As of 1:53 AM on Wednesday 22 Oct 2014 (Local Time) from KBYG Reporting Station
Clear Clear  
Wind Chill: 35°   Ceiling: Unl
Heat Index: 41°   Visibility: 10mi
Dew Point: 28°   Wind: 10mph
Humidity: 60%   Direction: 290°WNW
Pressure: 29.97"   Gusts: NA
Location:  44.72°N, 106.27°W
Report Text: KBYG 220753Z AUTO 29009KT 10SM CLR 05/M02 A2997 RMK AO2 SLP110 T00501022
Loading
Personal Weather Stations






























Interactive Weather Map
Tropical Storm Tracking
New forecast layout! Learn more

10-Day Weather Forecast

Advertisements
Track Severe Weather on mobile